createdAt,value
2018-08-27T00:00:20.098Z,0.00
2018-08-27T00:01:19.967Z,0.00
2018-08-27T00:02:19.841Z,0.00
2018-08-27T00:03:19.717Z,0.00
2018-08-27T00:04:19.586Z,0.00
2018-08-27T00:05:19.457Z,0.00
2018-08-27T00:06:19.337Z,0.00
2018-08-27T00:07:19.212Z,0.00
2018-08-27T00:08:19.071Z,0.00
2018-08-27T00:09:18.941Z,0.00
2018-08-27T00:10:18.821Z,0.00
2018-08-27T00:11:18.687Z,0.00
2018-08-27T00:12:18.558Z,0.00
2018-08-27T00:13:18.431Z,0.00
2018-08-27T00:14:18.303Z,0.00
2018-08-27T00:15:18.177Z,0.00
2018-08-27T00:16:18.049Z,0.00
2018-08-27T00:17:17.917Z,0.00
2018-08-27T00:18:17.794Z,0.00
2018-08-27T00:19:17.687Z,0.00
2018-08-27T00:20:17.535Z,0.00
2018-08-27T00:21:17.407Z,0.00
2018-08-27T00:22:17.277Z,0.00
2018-08-27T00:23:17.151Z,0.00
2018-08-27T00:24:17.018Z,0.00
2018-08-27T00:25:16.892Z,0.00
2018-08-27T00:26:16.763Z,0.00
2018-08-27T00:27:16.634Z,0.00
2018-08-27T00:28:16.507Z,0.00
2018-08-27T00:29:16.377Z,0.00
2018-08-27T00:30:16.248Z,0.00
2018-08-27T00:31:16.123Z,0.00
2018-08-27T00:32:15.992Z,0.00
2018-08-27T00:33:15.867Z,0.00
2018-08-27T00:34:15.738Z,0.00
2018-08-27T00:35:15.610Z,0.00
2018-08-27T00:36:15.482Z,0.00
2018-08-27T00:37:15.353Z,0.00
2018-08-27T00:38:15.226Z,0.00
2018-08-27T00:39:15.097Z,0.00
2018-08-27T00:40:14.971Z,0.00
2018-08-27T00:41:14.843Z,0.00
2018-08-27T00:42:14.713Z,0.00
2018-08-27T00:43:14.586Z,0.00
2018-08-27T00:44:14.457Z,0.00
2018-08-27T00:45:14.328Z,0.00
2018-08-27T00:46:14.201Z,0.00
2018-08-27T00:47:14.074Z,0.00
2018-08-27T00:48:13.944Z,0.00
2018-08-27T00:49:13.819Z,0.00
2018-08-27T00:50:13.687Z,0.00
2018-08-27T00:51:13.559Z,0.00
2018-08-27T00:52:13.435Z,0.00
2018-08-27T00:53:13.306Z,0.00
2018-08-27T00:54:13.176Z,0.00
2018-08-27T00:55:13.049Z,0.00
2018-08-27T00:56:12.919Z,0.00
2018-08-27T00:57:12.792Z,0.00
2018-08-27T00:58:12.664Z,0.00
2018-08-27T00:59:12.536Z,0.00
2018-08-27T01:00:12.406Z,0.00
2018-08-27T01:01:12.280Z,0.00
2018-08-27T01:02:12.149Z,0.00
2018-08-27T01:03:12.022Z,0.00
2018-08-27T01:04:11.894Z,0.00
2018-08-27T01:05:11.768Z,0.00
2018-08-27T01:06:11.642Z,0.00
2018-08-27T01:07:11.511Z,0.00
2018-08-27T01:08:11.382Z,0.00
2018-08-27T01:09:11.254Z,0.00
2018-08-27T01:10:11.128Z,0.00
2018-08-27T01:11:10.996Z,0.00
2018-08-27T01:12:10.869Z,0.00
2018-08-27T01:13:10.738Z,0.00
2018-08-27T01:14:10.617Z,0.00
2018-08-27T01:15:10.487Z,0.00
2018-08-27T01:16:10.356Z,0.00
2018-08-27T01:17:10.225Z,0.00
2018-08-27T01:18:10.100Z,0.00
2018-08-27T01:19:09.970Z,0.00
2018-08-27T01:20:09.842Z,0.00
2018-08-27T01:21:09.721Z,0.00
2018-08-27T01:22:09.589Z,0.00
2018-08-27T01:23:09.460Z,0.00
2018-08-27T01:24:09.330Z,0.00
2018-08-27T01:25:09.203Z,0.00
2018-08-27T01:26:09.077Z,0.00
2018-08-27T01:27:08.947Z,0.00
2018-08-27T01:28:08.820Z,0.00
2018-08-27T01:29:08.694Z,0.00
2018-08-27T01:30:08.566Z,0.00
2018-08-27T01:31:08.435Z,0.00
2018-08-27T01:32:08.311Z,0.00
2018-08-27T01:33:08.182Z,0.00
2018-08-27T01:34:08.053Z,0.00
2018-08-27T01:35:07.926Z,0.00
2018-08-27T01:36:07.797Z,0.00
2018-08-27T01:37:07.671Z,0.00
2018-08-27T01:38:07.542Z,0.00
2018-08-27T01:39:07.414Z,0.00
2018-08-27T01:40:07.288Z,0.00
2018-08-27T01:41:07.162Z,0.00
2018-08-27T01:42:07.031Z,0.00
2018-08-27T01:43:06.905Z,0.00
2018-08-27T01:44:06.778Z,0.00
2018-08-27T01:45:06.650Z,0.00
2018-08-27T01:46:06.523Z,0.00
2018-08-27T01:47:06.397Z,0.00
2018-08-27T01:48:06.268Z,0.00
2018-08-27T01:49:06.142Z,0.00
2018-08-27T01:50:06.014Z,0.00
2018-08-27T01:51:05.901Z,0.00
2018-08-27T01:52:05.757Z,0.00
2018-08-27T01:53:05.630Z,0.00
2018-08-27T01:54:05.503Z,0.00
2018-08-27T01:55:05.375Z,0.00
2018-08-27T01:56:05.247Z,0.00
2018-08-27T01:57:05.120Z,0.00
2018-08-27T01:58:04.993Z,0.00
2018-08-27T01:59:04.870Z,0.00
2018-08-27T02:00:04.738Z,0.00
2018-08-27T02:01:04.611Z,0.00
2018-08-27T02:02:04.484Z,0.00
2018-08-27T02:03:04.355Z,0.00
2018-08-27T02:04:04.230Z,0.00
2018-08-27T02:05:04.101Z,0.00
2018-08-27T02:06:03.973Z,0.00
2018-08-27T02:07:03.847Z,0.00
2018-08-27T02:08:03.724Z,0.00
2018-08-27T02:09:03.593Z,0.00
2018-08-27T02:10:03.464Z,0.00
2018-08-27T02:11:03.336Z,0.00
2018-08-27T02:12:03.209Z,0.00
2018-08-27T02:13:03.079Z,0.00
2018-08-27T02:14:02.953Z,0.00
2018-08-27T02:15:02.828Z,0.00
2018-08-27T02:16:02.701Z,0.00
2018-08-27T02:17:02.572Z,0.00
2018-08-27T02:18:02.449Z,0.00
2018-08-27T02:19:02.318Z,0.00
2018-08-27T02:20:02.195Z,0.00
2018-08-27T02:21:02.134Z,0.00
2018-08-27T02:22:01.935Z,0.00
2018-08-27T02:23:01.810Z,0.00
2018-08-27T02:24:01.680Z,0.00
2018-08-27T02:25:01.559Z,0.00
2018-08-27T02:26:01.503Z,0.00
2018-08-27T02:27:01.297Z,0.00
2018-08-27T02:28:01.173Z,0.00
2018-08-27T02:29:01.041Z,0.00
2018-08-27T02:30:00.918Z,0.00
2018-08-27T02:31:00.790Z,0.00
2018-08-27T02:32:00.663Z,0.00
2018-08-27T02:33:00.534Z,0.00
2018-08-27T02:34:00.410Z,0.00
2018-08-27T02:35:00.332Z,0.00
2018-08-27T02:36:00.154Z,0.00
2018-08-27T02:37:00.024Z,0.00
2018-08-27T02:37:59.899Z,0.00
2018-08-27T02:38:59.771Z,0.00
2018-08-27T02:39:59.648Z,0.00
2018-08-27T02:40:59.516Z,0.00
2018-08-27T02:41:59.389Z,0.00
2018-08-27T02:42:59.263Z,0.00
2018-08-27T02:43:59.135Z,0.00
2018-08-27T02:44:59.007Z,0.00
2018-08-27T02:45:58.882Z,0.00
2018-08-27T02:46:58.755Z,0.00
2018-08-27T02:47:58.628Z,0.00
2018-08-27T02:48:58.504Z,0.00
2018-08-27T02:49:58.374Z,0.00
2018-08-27T02:50:58.247Z,0.00
2018-08-27T02:51:58.130Z,0.00
2018-08-27T02:52:57.995Z,0.00
2018-08-27T02:53:57.863Z,0.00
2018-08-27T02:54:57.736Z,0.00
2018-08-27T02:55:57.609Z,0.00
2018-08-27T02:56:57.483Z,0.00
2018-08-27T02:57:57.355Z,0.00
2018-08-27T02:58:57.227Z,0.00
2018-08-27T02:59:57.101Z,0.00
2018-08-27T03:00:56.970Z,0.00
2018-08-27T03:01:56.845Z,0.00
2018-08-27T03:02:56.720Z,0.00
2018-08-27T03:03:56.592Z,0.00
2018-08-27T03:04:56.466Z,0.00
2018-08-27T03:05:56.336Z,0.00
2018-08-27T03:06:56.208Z,0.00
2018-08-27T03:07:56.083Z,0.00
2018-08-27T03:08:55.956Z,0.00
2018-08-27T03:09:55.826Z,0.00
2018-08-27T03:10:55.699Z,0.00
2018-08-27T03:11:55.574Z,0.00
2018-08-27T03:12:55.446Z,0.00
2018-08-27T03:13:55.318Z,0.00
2018-08-27T03:14:55.189Z,0.00
2018-08-27T03:15:55.067Z,0.00
2018-08-27T03:16:54.936Z,0.00
2018-08-27T03:17:54.808Z,0.00
2018-08-27T03:18:54.681Z,0.00
2018-08-27T03:19:54.555Z,0.00
2018-08-27T03:20:54.429Z,0.00
2018-08-27T03:21:54.300Z,0.00
2018-08-27T03:22:54.174Z,0.00
2018-08-27T03:23:54.046Z,0.00
2018-08-27T03:24:53.977Z,0.00
2018-08-27T03:25:53.791Z,0.00
2018-08-27T03:26:53.667Z,0.00
2018-08-27T03:27:53.539Z,0.00
2018-08-27T03:28:53.411Z,0.00
2018-08-27T03:29:53.282Z,0.00
2018-08-27T03:30:53.155Z,0.00
2018-08-27T03:31:53.035Z,0.00
2018-08-27T03:32:52.899Z,0.00
2018-08-27T03:33:52.772Z,0.00
2018-08-27T03:34:52.647Z,0.00
2018-08-27T03:35:52.521Z,0.00
2018-08-27T03:36:52.389Z,0.00
2018-08-27T03:37:52.263Z,0.00
2018-08-27T03:38:52.138Z,0.00
2018-08-27T03:39:52.010Z,0.00
2018-08-27T03:40:51.883Z,0.00
2018-08-27T03:41:51.757Z,0.00
2018-08-27T03:42:51.628Z,0.00
2018-08-27T03:43:51.501Z,0.00
2018-08-27T03:44:51.375Z,0.00
2018-08-27T03:45:51.251Z,0.00
2018-08-27T03:46:51.120Z,0.00
2018-08-27T03:47:50.992Z,0.00
2018-08-27T03:48:50.864Z,0.00
2018-08-27T03:49:50.740Z,0.00
2018-08-27T03:50:50.615Z,0.00
2018-08-27T03:51:50.487Z,0.00
2018-08-27T03:52:50.359Z,0.00
2018-08-27T03:53:50.231Z,0.00
2018-08-27T03:54:50.106Z,0.00
2018-08-27T03:55:49.975Z,0.00
2018-08-27T03:56:49.847Z,0.00
2018-08-27T03:57:49.725Z,0.00
2018-08-27T03:58:49.593Z,0.00
2018-08-27T03:59:49.470Z,0.00
2018-08-27T04:00:49.341Z,0.00
2018-08-27T04:01:49.211Z,0.00
2018-08-27T04:02:49.086Z,0.00
2018-08-27T04:03:48.960Z,0.00
2018-08-27T04:04:48.829Z,0.00
2018-08-27T04:05:48.704Z,0.00
2018-08-27T04:06:48.579Z,0.00
2018-08-27T04:07:48.448Z,0.00
2018-08-27T04:08:48.320Z,0.00
2018-08-27T04:09:48.195Z,0.00
2018-08-27T04:10:48.068Z,0.00
2018-08-27T04:11:47.941Z,0.00
2018-08-27T04:12:47.814Z,0.00
2018-08-27T04:13:47.685Z,4.00
2018-08-27T04:14:47.559Z,0.00
2018-08-27T04:15:47.432Z,4.00
2018-08-27T04:16:47.304Z,4.00
2018-08-27T04:17:47.177Z,4.00
2018-08-27T04:18:47.071Z,8.00
2018-08-27T04:19:46.923Z,8.00
2018-08-27T04:20:46.797Z,8.00
2018-08-27T04:21:46.671Z,8.00
2018-08-27T04:22:46.541Z,8.00
2018-08-27T04:23:46.415Z,12.00
2018-08-27T04:24:46.289Z,12.00
2018-08-27T04:25:46.162Z,16.00
2018-08-27T04:26:46.034Z,20.00
2018-08-27T04:27:45.907Z,20.00
2018-08-27T04:28:45.869Z,28.00
2018-08-27T04:29:45.652Z,28.00
2018-08-27T04:30:45.528Z,32.00
2018-08-27T04:31:45.402Z,36.00
2018-08-27T04:32:45.271Z,40.00
2018-08-27T04:33:45.146Z,44.00
2018-08-27T04:34:45.032Z,52.00
2018-08-27T04:35:44.890Z,56.00
2018-08-27T04:36:44.764Z,60.00
2018-08-27T04:37:44.636Z,68.00
2018-08-27T04:38:44.515Z,76.00
2018-08-27T04:39:44.383Z,80.00
2018-08-27T04:40:44.259Z,88.00
2018-08-27T04:41:44.203Z,96.00
2018-08-27T04:42:44.093Z,104.00
2018-08-27T04:43:43.877Z,112.00
2018-08-27T04:44:43.749Z,120.00
2018-08-27T04:45:43.622Z,128.00
2018-08-27T04:46:43.505Z,136.00
2018-08-27T04:47:43.372Z,148.00
2018-08-27T04:48:43.245Z,156.00
2018-08-27T04:49:43.115Z,164.00
2018-08-27T04:50:42.989Z,172.00
2018-08-27T04:51:42.860Z,180.00
2018-08-27T04:52:42.734Z,192.00
2018-08-27T04:53:42.607Z,196.00
2018-08-27T04:54:42.480Z,204.00
2018-08-27T04:55:42.353Z,216.00
2018-08-27T04:56:42.227Z,228.00
2018-08-27T04:57:42.103Z,244.00
2018-08-27T04:58:41.973Z,252.00
2018-08-27T04:59:41.844Z,260.00
2018-08-27T05:00:41.716Z,272.00
2018-08-27T05:01:41.592Z,276.00
2018-08-27T05:02:41.462Z,272.00
2018-08-27T05:03:41.337Z,272.00
2018-08-27T05:04:41.208Z,276.00
2018-08-27T05:05:41.082Z,280.00
2018-08-27T05:06:40.964Z,292.00
2018-08-27T05:07:40.827Z,300.00
2018-08-27T05:08:40.702Z,312.00
2018-08-27T05:09:40.573Z,332.00
2018-08-27T05:10:40.447Z,344.00
2018-08-27T05:11:40.321Z,368.00
2018-08-27T05:12:40.209Z,380.00
2018-08-27T05:13:40.065Z,380.00
2018-08-27T05:14:39.937Z,396.00
2018-08-27T05:15:39.813Z,412.00
2018-08-27T05:16:39.692Z,444.00
2018-08-27T05:17:39.557Z,456.00
2018-08-27T05:18:39.428Z,472.00
2018-08-27T05:19:39.307Z,468.00
2018-08-27T05:20:39.173Z,468.00
2018-08-27T05:21:39.047Z,488.00
2018-08-27T05:22:38.923Z,504.00
2018-08-27T05:23:38.790Z,516.00
2018-08-27T05:24:38.665Z,528.00
2018-08-27T05:25:38.540Z,560.00
2018-08-27T05:26:38.411Z,580.00
2018-08-27T05:27:38.281Z,576.00
2018-08-27T05:28:38.155Z,588.00
2018-08-27T05:29:38.031Z,608.00
2018-08-27T05:30:37.946Z,620.00
2018-08-27T05:31:37.774Z,632.00
2018-08-27T05:32:37.646Z,596.00
2018-08-27T05:33:37.518Z,472.00
2018-08-27T05:34:37.392Z,344.00
2018-08-27T05:35:37.266Z,340.00
2018-08-27T05:36:37.137Z,348.00
2018-08-27T05:37:37.016Z,352.00
2018-08-27T05:38:36.968Z,356.00
2018-08-27T05:39:36.761Z,364.00
2018-08-27T05:40:36.632Z,368.00
2018-08-27T05:41:36.503Z,372.00
2018-08-27T05:42:36.380Z,376.00
2018-08-27T05:43:36.256Z,380.00
2018-08-27T05:44:36.205Z,384.00
2018-08-27T05:45:36.032Z,396.00
2018-08-27T05:46:35.870Z,396.00
2018-08-27T05:47:35.778Z,412.00
2018-08-27T05:48:35.617Z,440.00
2018-08-27T05:49:35.491Z,584.00
2018-08-27T05:50:35.363Z,788.00
2018-08-27T05:51:35.236Z,852.00
2018-08-27T05:52:35.113Z,768.00
2018-08-27T05:53:34.985Z,600.00
2018-08-27T05:54:34.857Z,656.00
2018-08-27T05:55:34.737Z,568.00
2018-08-27T05:56:34.609Z,620.00
2018-08-27T05:57:34.476Z,592.00
2018-08-27T05:58:34.348Z,544.00
2018-08-27T05:59:34.225Z,580.00
2018-08-27T06:00:34.098Z,512.00
2018-08-27T06:01:33.997Z,544.00
2018-08-27T06:02:33.843Z,516.00
2018-08-27T06:03:33.718Z,504.00
2018-08-27T06:04:33.591Z,532.00
2018-08-27T06:05:33.466Z,548.00
2018-08-27T06:06:33.339Z,496.00
2018-08-27T06:07:33.211Z,496.00
2018-08-27T06:08:33.085Z,508.00
2018-08-27T06:09:32.958Z,536.00
2018-08-27T06:10:32.835Z,528.00
2018-08-27T06:11:32.706Z,532.00
2018-08-27T06:12:32.585Z,516.00
2018-08-27T06:13:32.457Z,480.00
2018-08-27T06:14:32.328Z,472.00
2018-08-27T06:15:32.202Z,496.00
2018-08-27T06:16:32.132Z,504.00
2018-08-27T06:17:31.949Z,524.00
2018-08-27T06:18:31.821Z,516.00
2018-08-27T06:19:31.696Z,524.00
2018-08-27T06:20:31.578Z,528.00
2018-08-27T06:21:31.442Z,524.00
2018-08-27T06:22:31.319Z,528.00
2018-08-27T06:23:31.190Z,592.00
2018-08-27T06:24:31.068Z,704.00
2018-08-27T06:25:30.942Z,644.00
2018-08-27T06:26:30.813Z,640.00
2018-08-27T06:27:30.688Z,1048.00
2018-08-27T06:28:30.563Z,1136.00
2018-08-27T06:29:30.435Z,1168.00
2018-08-27T06:30:30.309Z,1016.00
2018-08-27T06:31:30.186Z,1004.00
2018-08-27T06:32:30.088Z,1048.00
2018-08-27T06:33:29.931Z,636.00
2018-08-27T06:34:29.806Z,628.00
2018-08-27T06:35:29.680Z,1176.00
2018-08-27T06:36:29.555Z,592.00
2018-08-27T06:37:29.431Z,652.00
2018-08-27T06:38:29.305Z,928.00
2018-08-27T06:39:29.178Z,624.00
2018-08-27T06:40:29.049Z,668.00
2018-08-27T06:41:28.924Z,664.00
2018-08-27T06:42:28.799Z,688.00
2018-08-27T06:43:28.673Z,1176.00
2018-08-27T06:44:28.551Z,1164.00
2018-08-27T06:45:28.422Z,1156.00
2018-08-27T06:46:28.297Z,904.00
2018-08-27T06:47:28.172Z,724.00
2018-08-27T06:48:28.042Z,1168.00
2018-08-27T06:49:27.916Z,1216.00
2018-08-27T06:50:27.794Z,1172.00
2018-08-27T06:51:27.670Z,1204.00
2018-08-27T06:52:27.540Z,1200.00
2018-08-27T06:53:27.420Z,1180.00
2018-08-27T06:54:27.292Z,1196.00
2018-08-27T06:55:27.165Z,1176.00
2018-08-27T06:56:27.045Z,1192.00
2018-08-27T06:57:26.914Z,1200.00
2018-08-27T06:58:26.788Z,1192.00
2018-08-27T06:59:26.667Z,1192.00
2018-08-27T07:00:26.538Z,1196.00
2018-08-27T07:01:26.419Z,1196.00
2018-08-27T07:02:26.294Z,1200.00
2018-08-27T07:03:26.164Z,1200.00
2018-08-27T07:04:26.045Z,1156.00
2018-08-27T07:05:25.916Z,1224.00
2018-08-27T07:06:25.790Z,1208.00
2018-08-27T07:07:25.665Z,1232.00
2018-08-27T07:08:25.540Z,852.00
2018-08-27T07:09:25.421Z,1204.00
2018-08-27T07:10:25.296Z,1228.00
2018-08-27T07:11:25.168Z,1024.00
2018-08-27T07:12:25.044Z,804.00
2018-08-27T07:13:24.917Z,1068.00
2018-08-27T07:14:24.798Z,1028.00
2018-08-27T07:15:24.670Z,1140.00
2018-08-27T07:16:24.545Z,1052.00
2018-08-27T07:17:24.422Z,1244.00
2018-08-27T07:18:24.298Z,792.00
2018-08-27T07:19:24.174Z,1068.00
2018-08-27T07:20:24.118Z,1304.00
2018-08-27T07:21:23.926Z,1296.00
2018-08-27T07:22:23.801Z,1296.00
2018-08-27T07:23:23.679Z,1300.00
2018-08-27T07:24:23.552Z,1308.00
2018-08-27T07:25:23.428Z,1312.00
2018-08-27T07:26:23.307Z,1312.00
2018-08-27T07:27:23.230Z,1312.00
2018-08-27T07:28:23.059Z,1312.00
2018-08-27T07:29:22.935Z,1312.00
2018-08-27T07:30:22.812Z,1316.00
2018-08-27T07:31:22.686Z,1312.00
2018-08-27T07:32:22.563Z,1316.00
2018-08-27T07:33:22.439Z,1316.00
2018-08-27T07:34:22.318Z,1320.00
2018-08-27T07:35:22.200Z,1324.00
2018-08-27T07:36:22.085Z,1328.00
2018-08-27T07:37:21.947Z,1332.00
2018-08-27T07:38:21.824Z,1340.00
2018-08-27T07:39:21.703Z,1344.00
2018-08-27T07:40:21.575Z,1348.00
2018-08-27T07:41:21.456Z,1352.00
2018-08-27T07:42:21.331Z,1356.00
2018-08-27T07:43:21.220Z,1364.00
2018-08-27T07:44:21.085Z,1364.00
2018-08-27T07:45:20.962Z,1372.00
2018-08-27T07:46:20.842Z,1376.00
2018-08-27T07:47:20.716Z,1380.00
2018-08-27T07:48:20.593Z,1380.00
2018-08-27T07:49:20.472Z,1388.00
2018-08-27T07:50:20.349Z,1392.00
2018-08-27T07:51:20.320Z,1396.00
2018-08-27T07:52:20.107Z,1404.00
2018-08-27T07:53:19.984Z,1412.00
2018-08-27T07:54:19.860Z,1416.00
2018-08-27T07:55:19.738Z,1420.00
2018-08-27T07:56:19.614Z,1428.00
2018-08-27T07:57:19.489Z,1436.00
2018-08-27T07:58:19.409Z,1448.00
2018-08-27T07:59:19.247Z,1456.00
2018-08-27T08:00:19.122Z,1464.00
2018-08-27T08:01:19.004Z,1380.00
2018-08-27T08:02:18.916Z,1488.00
2018-08-27T08:03:18.759Z,1496.00
2018-08-27T08:04:18.635Z,1492.00
2018-08-27T08:05:18.564Z,1516.00
2018-08-27T08:06:18.392Z,1516.00
2018-08-27T08:07:18.330Z,1536.00
2018-08-27T08:08:18.149Z,1540.00
2018-08-27T08:09:18.024Z,1540.00
2018-08-27T08:10:17.907Z,1552.00
2018-08-27T08:11:17.809Z,1544.00
2018-08-27T08:12:17.658Z,1476.00
2018-08-27T08:13:17.542Z,1584.00
2018-08-27T08:14:17.420Z,1444.00
2018-08-27T08:15:17.300Z,1328.00
2018-08-27T08:16:17.174Z,1272.00
2018-08-27T08:17:17.050Z,1184.00
2018-08-27T08:18:16.929Z,1244.00
2018-08-27T08:19:16.810Z,1352.00
2018-08-27T08:20:16.687Z,1360.00
2018-08-27T08:21:16.565Z,1280.00
2018-08-27T08:22:16.444Z,1436.00
2018-08-27T08:23:16.342Z,1484.00
2018-08-27T08:24:16.199Z,1408.00
2018-08-27T08:25:16.079Z,1260.00
2018-08-27T08:26:15.960Z,1092.00
2018-08-27T08:27:15.836Z,1424.00
2018-08-27T08:28:15.716Z,1036.00
2018-08-27T08:29:15.597Z,1228.00
2018-08-27T08:30:15.477Z,1568.00
2018-08-27T08:31:15.353Z,1612.00
2018-08-27T08:32:15.231Z,1588.00
2018-08-27T08:33:15.175Z,1552.00
2018-08-27T08:34:14.988Z,1524.00
2018-08-27T08:35:14.869Z,1284.00
2018-08-27T08:36:14.745Z,1240.00
2018-08-27T08:37:14.637Z,1312.00
2018-08-27T08:38:14.504Z,1180.00
2018-08-27T08:39:14.383Z,1444.00
2018-08-27T08:40:14.322Z,1088.00
2018-08-27T08:41:14.141Z,1232.00
2018-08-27T08:42:14.019Z,1032.00
2018-08-27T08:43:13.898Z,1104.00
2018-08-27T08:44:13.779Z,1524.00
2018-08-27T08:45:13.657Z,1220.00
2018-08-27T08:46:13.536Z,1256.00
2018-08-27T08:47:13.414Z,1240.00
2018-08-27T08:48:13.291Z,1204.00
2018-08-27T08:49:13.176Z,1380.00
2018-08-27T08:50:13.049Z,1364.00
2018-08-27T08:51:12.929Z,1572.00
2018-08-27T08:52:12.809Z,1524.00
2018-08-27T08:53:12.688Z,1492.00
2018-08-27T08:54:12.567Z,1468.00
2018-08-27T08:55:12.445Z,1468.00
2018-08-27T08:56:12.340Z,1456.00
2018-08-27T08:57:12.202Z,1448.00
2018-08-27T08:58:12.083Z,1436.00
2018-08-27T08:59:11.964Z,1436.00
2018-08-27T09:00:11.840Z,1444.00
2018-08-27T09:01:11.752Z,1444.00
2018-08-27T09:02:11.600Z,1444.00
2018-08-27T09:03:11.480Z,1440.00
2018-08-27T09:04:11.365Z,1444.00
2018-08-27T09:05:11.239Z,1444.00
2018-08-27T09:06:11.159Z,1448.00
2018-08-27T09:07:10.998Z,1356.00
2018-08-27T09:08:10.963Z,1384.00
2018-08-27T09:09:10.759Z,1464.00
2018-08-27T09:10:10.636Z,1476.00
2018-08-27T09:11:10.517Z,1472.00
2018-08-27T09:12:10.397Z,1468.00
2018-08-27T09:13:10.276Z,1492.00
2018-08-27T09:14:10.156Z,1496.00
2018-08-27T09:15:10.038Z,1508.00
2018-08-27T09:16:09.915Z,1512.00
2018-08-27T09:17:09.856Z,1516.00
2018-08-27T09:18:09.676Z,1520.00
2018-08-27T09:19:09.558Z,1524.00
2018-08-27T09:20:09.435Z,1532.00
2018-08-27T09:21:09.317Z,1536.00
2018-08-27T09:22:09.198Z,1536.00
2018-08-27T09:23:09.077Z,1536.00
2018-08-27T09:24:08.958Z,1536.00
2018-08-27T09:25:08.840Z,1544.00
2018-08-27T09:26:08.720Z,1548.00
2018-08-27T09:27:08.598Z,1548.00
2018-08-27T09:28:08.477Z,1552.00
2018-08-27T09:29:08.363Z,1560.00
2018-08-27T09:30:08.239Z,1564.00
2018-08-27T09:31:08.123Z,1572.00
2018-08-27T09:32:08.005Z,1580.00
2018-08-27T09:33:07.974Z,1588.00
2018-08-27T09:34:07.763Z,1596.00
2018-08-27T09:35:07.641Z,1600.00
2018-08-27T09:36:07.519Z,1608.00
2018-08-27T09:37:07.568Z,1612.00
2018-08-27T09:38:07.285Z,1620.00
2018-08-27T09:39:07.161Z,1628.00
2018-08-27T09:40:07.043Z,1640.00
2018-08-27T09:41:06.923Z,1648.00
2018-08-27T09:42:06.803Z,1672.00
2018-08-27T09:43:06.688Z,1696.00
2018-08-27T09:44:06.566Z,1708.00
2018-08-27T09:45:06.445Z,1716.00
2018-08-27T09:46:06.329Z,1716.00
2018-08-27T09:47:06.212Z,1728.00
2018-08-27T09:48:06.090Z,1736.00
2018-08-27T09:49:05.970Z,1740.00
2018-08-27T09:50:05.851Z,1752.00
2018-08-27T09:51:05.730Z,1768.00
2018-08-27T09:52:05.612Z,1780.00
2018-08-27T09:53:05.536Z,1724.00
2018-08-27T09:54:05.374Z,1808.00
2018-08-27T09:55:05.254Z,1788.00
2018-08-27T09:56:05.134Z,1852.00
2018-08-27T09:57:05.015Z,1864.00
2018-08-27T09:58:04.899Z,1876.00
2018-08-27T09:59:04.818Z,1888.00
2018-08-27T10:00:04.661Z,1896.00
2018-08-27T10:01:04.540Z,1904.00
2018-08-27T10:02:04.422Z,1916.00
2018-08-27T10:03:04.306Z,1932.00
2018-08-27T10:04:04.184Z,1960.00
2018-08-27T10:05:04.067Z,1980.00
2018-08-27T10:06:03.945Z,2004.00
2018-08-27T10:07:03.827Z,2024.00
2018-08-27T10:08:03.713Z,2036.00
2018-08-27T10:09:03.671Z,2048.00
2018-08-27T10:10:03.472Z,2060.00
2018-08-27T10:11:03.354Z,2072.00
2018-08-27T10:12:03.234Z,2080.00
2018-08-27T10:13:03.117Z,2088.00
2018-08-27T10:14:02.999Z,2096.00
2018-08-27T10:15:02.921Z,2108.00
2018-08-27T10:16:02.759Z,2120.00
2018-08-27T10:17:02.643Z,2124.00
2018-08-27T10:18:02.523Z,2136.00
2018-08-27T10:19:02.416Z,2132.00
2018-08-27T10:20:02.288Z,2140.00
2018-08-27T10:21:02.169Z,2140.00
2018-08-27T10:22:02.113Z,2148.00
2018-08-27T10:23:01.932Z,2152.00
2018-08-27T10:24:01.813Z,2156.00
2018-08-27T10:25:01.697Z,2160.00
2018-08-27T10:26:01.578Z,2168.00
2018-08-27T10:27:01.462Z,2172.00
2018-08-27T10:28:01.342Z,2180.00
2018-08-27T10:29:01.230Z,2184.00
2018-08-27T10:30:01.108Z,2232.00
2018-08-27T10:31:00.990Z,2324.00
2018-08-27T10:32:00.874Z,2384.00
2018-08-27T10:33:00.758Z,2448.00
2018-08-27T10:34:00.637Z,2376.00
2018-08-27T10:35:00.520Z,2328.00
2018-08-27T10:36:00.404Z,2420.00
2018-08-27T10:37:00.291Z,2460.00
2018-08-27T10:38:00.169Z,2496.00
2018-08-27T10:39:00.052Z,2440.00
2018-08-27T10:39:59.935Z,2368.00
2018-08-27T10:40:59.819Z,2300.00
2018-08-27T10:41:59.702Z,2292.00
2018-08-27T10:42:59.586Z,2304.00
2018-08-27T10:43:59.467Z,2324.00
2018-08-27T10:44:59.353Z,2332.00
2018-08-27T10:45:59.236Z,2360.00
2018-08-27T10:46:59.118Z,2392.00
2018-08-27T10:47:59.001Z,2428.00
2018-08-27T10:48:58.883Z,2472.00
2018-08-27T10:49:58.790Z,2504.00
2018-08-27T10:50:58.655Z,2532.00
2018-08-27T10:51:58.532Z,2564.00
2018-08-27T10:52:58.423Z,2580.00
2018-08-27T10:53:58.299Z,2596.00
2018-08-27T10:54:58.187Z,2604.00
2018-08-27T10:55:58.072Z,2616.00
2018-08-27T10:56:57.953Z,2620.00
2018-08-27T10:57:57.834Z,2624.00
2018-08-27T10:58:57.722Z,2632.00
2018-08-27T10:59:57.604Z,2640.00
2018-08-27T11:00:57.491Z,2644.00
2018-08-27T11:01:57.370Z,2648.00
2018-08-27T11:02:57.257Z,2656.00
2018-08-27T11:03:57.139Z,2660.00
2018-08-27T11:04:57.024Z,2664.00
2018-08-27T11:05:56.908Z,2676.00
2018-08-27T11:06:56.792Z,2676.00
2018-08-27T11:07:56.677Z,2684.00
2018-08-27T11:08:56.570Z,2696.00
2018-08-27T11:09:56.447Z,2700.00
2018-08-27T11:10:56.332Z,2704.00
2018-08-27T11:11:56.218Z,2712.00
2018-08-27T11:12:56.102Z,2720.00
2018-08-27T11:13:55.986Z,2732.00
2018-08-27T11:14:55.871Z,2732.00
2018-08-27T11:15:55.760Z,2740.00
2018-08-27T11:16:55.644Z,2748.00
2018-08-27T11:17:55.528Z,2756.00
2018-08-27T11:18:55.414Z,2760.00
2018-08-27T11:19:55.362Z,2772.00
2018-08-27T11:20:55.183Z,2780.00
2018-08-27T11:21:55.073Z,2788.00
2018-08-27T11:22:54.952Z,2796.00
2018-08-27T11:23:54.837Z,2804.00
2018-08-27T11:24:54.726Z,2816.00
2018-08-27T11:25:54.607Z,2820.00
2018-08-27T11:26:54.497Z,2832.00
2018-08-27T11:27:54.383Z,2844.00
2018-08-27T11:28:54.266Z,2860.00
2018-08-27T11:29:54.146Z,2872.00
2018-08-27T11:30:54.034Z,2880.00
2018-08-27T11:31:53.923Z,2900.00
2018-08-27T11:32:53.839Z,2920.00
2018-08-27T11:33:53.688Z,2956.00
2018-08-27T11:34:53.575Z,2972.00
2018-08-27T11:35:53.457Z,3040.00
2018-08-27T11:36:53.341Z,3012.00
2018-08-27T11:37:53.226Z,3056.00
2018-08-27T11:38:53.113Z,3048.00
2018-08-27T11:39:52.996Z,3096.00
2018-08-27T11:40:52.882Z,3136.00
2018-08-27T11:41:52.767Z,3204.00
2018-08-27T11:42:52.652Z,3340.00
2018-08-27T11:43:52.538Z,3440.00
2018-08-27T11:44:52.424Z,3204.00
2018-08-27T11:45:52.312Z,3292.00
2018-08-27T11:46:52.197Z,3204.00
2018-08-27T11:47:52.080Z,3240.00
2018-08-27T11:48:51.965Z,3240.00
2018-08-27T11:49:51.854Z,2656.00
2018-08-27T11:50:51.831Z,3508.00
2018-08-27T11:51:51.627Z,2624.00
2018-08-27T11:52:51.514Z,3200.00
2018-08-27T11:53:51.399Z,3060.00
2018-08-27T11:54:51.290Z,3200.00
2018-08-27T11:55:51.168Z,2404.00
2018-08-27T11:56:51.055Z,2904.00
2018-08-27T11:57:50.943Z,3328.00
2018-08-27T11:58:50.829Z,3448.00
2018-08-27T11:59:50.713Z,3224.00
2018-08-27T12:00:50.617Z,3484.00
2018-08-27T12:01:50.483Z,4028.00
2018-08-27T12:02:50.372Z,4260.00
2018-08-27T12:03:50.257Z,4552.00
2018-08-27T12:04:50.143Z,4736.00
2018-08-27T12:05:50.034Z,4980.00
2018-08-27T12:06:49.915Z,5744.00
2018-08-27T12:07:49.798Z,5888.00
2018-08-27T12:08:49.694Z,4836.00
2018-08-27T12:09:49.572Z,3980.00
2018-08-27T12:10:49.460Z,3780.00
2018-08-27T12:11:49.358Z,3692.00
2018-08-27T12:12:49.230Z,5812.00
2018-08-27T12:13:49.119Z,5648.00
2018-08-27T12:14:49.007Z,6992.00
2018-08-27T12:15:48.893Z,5920.00
2018-08-27T12:16:48.877Z,5752.00
2018-08-27T12:17:48.665Z,6184.00
2018-08-27T12:18:48.552Z,6232.00
2018-08-27T12:19:48.438Z,7872.00
2018-08-27T12:20:48.329Z,7588.00
2018-08-27T12:21:48.210Z,5232.00
2018-08-27T12:22:48.095Z,6152.00
2018-08-27T12:23:48.057Z,5352.00
2018-08-27T12:24:47.867Z,5492.00
2018-08-27T12:25:47.752Z,5276.00
2018-08-27T12:26:47.646Z,4776.00
2018-08-27T12:27:47.526Z,4672.00
2018-08-27T12:28:47.414Z,4752.00
2018-08-27T12:29:47.298Z,4412.00
2018-08-27T12:30:47.210Z,5260.00
2018-08-27T12:31:47.066Z,6328.00
2018-08-27T12:32:46.952Z,5868.00